Thunder radar more information blitzortung!


Radar de pluja more information rain snow radar


Visita la nostra xarxa de llocs de meteo:

Template documentation
and downloads

And another site



No particular awareness of the weather is required.    There are no Weather-warnings

Pagina Historial Weather Underground text

Diari Resum Marc 27, 2016 Unitats:  Mètric    Imperial   Tant
« Previous Dia
SegĂźent Dia »
Diari Setmana Mensual Anual Personalitzada
  Maxima: Minima: Media:
Temperatura: -17.8 °C -12.8 °C -9.6 °C
Punt de rosada: -17.8 °C -15.1 °C -13.9 °C
Humitat: Humidity % 43 % 60 %
Wind Speed: 0 km/h 0 km/h 10.6 km/h
RĂ fegues de vent: 0 km/h - -
Vent:- - South
Pression baro: 0 hPa 34361.1 hPa -
Precipitacions: 0 mm    
Historical Graphs
 
 
Dades de taula per Marc 27, 2016
Temps Temperatura Punt de rosada Pression baro Vent Wind Speed RĂ fegues de vent Humitat Rainfall Rate (Hourly)
-17.8 °C -17.8 °C 0 hPa Calm     Humidity % 0 mm
00:00 -12.8 °C -14.8 °C 34395 hPa Calm   2.6 km/h 78 % 0 mm
00:10 -12.8 °C -14.8 °C 34395 hPa WSW 2.6 km/h   78 % 0 mm
00:20 -12.7 °C -14.8 °C 34395 hPa WSW 5.1 km/h 5.1 km/h 77 % 0 mm
00:30 -12.7 °C -14.7 °C 34361.1 hPa Calm   5.1 km/h 78 % 0 mm
00:50 -12.4 °C -14.6 °C 34395 hPa NNE 5.1 km/h 7.7 km/h 77 % 0 mm
01:00 -12.3 °C -14.4 °C 34395 hPa Calm   5.1 km/h 77 % 0 mm
01:10 -12.1 °C -14.3 °C 34395 hPa WSW 5.1 km/h 5.1 km/h 76 % 0 mm
01:20 -11.9 °C -14.3 °C 34395 hPa WSW 2.6 km/h 7.7 km/h 75 % 0 mm
01:30 -11.6 °C -14.1 °C 34395 hPa WSW 5.1 km/h 7.7 km/h 74 % 0 mm
01:40 -11.5 °C -14 °C 34361.1 hPa WSW 2.6 km/h 5.1 km/h 74 % 0 mm
01:50 -11.3 °C -13.9 °C 34361.1 hPa WNW 2.6 km/h 5.1 km/h 73 % 0 mm
03:00 -11.7 °C -14.1 °C 34361.1 hPa SE 5.1 km/h 10.3 km/h 74 % 0 mm
03:10 -11.7 °C -14.2 °C 34395 hPa ESE 2.6 km/h 5.1 km/h 74 % 0 mm
03:20 -11.5 °C -14 °C 34395 hPa ENE 5.1 km/h 5.1 km/h 74 % 0 mm
03:30 -11.1 °C -13.6 °C 34395 hPa East 7.7 km/h 7.7 km/h 74 % 0 mm
03:40 -10.7 °C -13.3 °C 34428.8 hPa East 7.7 km/h 7.7 km/h 73 % 0 mm
03:50 -10.7 °C -13.4 °C 34428.8 hPa East 12.9 km/h 15.6 km/h 72 % 0 mm
04:00 -10.9 °C -13.7 °C 34428.8 hPa ESE 12.9 km/h 12.9 km/h 71 % 0 mm
04:10 -10.6 °C -13.5 °C 34462.7 hPa ESE 15.6 km/h 15.6 km/h 70 % 0 mm
04:20 -10.2 °C -13.3 °C 34462.7 hPa East 7.7 km/h 10.3 km/h 69 % 0 mm
04:30 -10 °C -13.1 °C 34462.7 hPa ENE 5.1 km/h 10.3 km/h 69 % 0 mm
04:40 -9.8 °C -13 °C 34462.7 hPa ENE 7.7 km/h 10.3 km/h 68 % 0 mm
04:50 -9.5 °C -12.9 °C 34462.7 hPa ENE 7.7 km/h 10.3 km/h 67 % 0 mm
05:10 -9.2 °C -12.7 °C 34462.7 hPa ENE 5.1 km/h 10.3 km/h 66 % 0 mm
05:20 -9.2 °C -12.7 °C 34462.7 hPa NE 2.6 km/h 7.7 km/h 66 % 0 mm
05:30 -9.1 °C -12.6 °C 34462.7 hPa NE 7.7 km/h 10.3 km/h 66 % 0 mm
05:40 -9.1 °C -12.7 °C 34462.7 hPa NE 5.1 km/h 10.3 km/h 65 % 0 mm
05:50 -8.9 °C -12.6 °C 34462.7 hPa NE 5.1 km/h 10.3 km/h 65 % 0 mm
06:00 -8.7 °C -12.4 °C 34462.7 hPa NNE 12.9 km/h 12.9 km/h 65 % 0 mm
06:10 -8.6 °C -12.2 °C 34462.7 hPa NNE 2.6 km/h 10.3 km/h 65 % 0 mm
12:20 -8.4 °C -12.4 °C 34462.7 hPa NNW 9 km/h 9 km/h 63 % 0 mm
12:25 -8.4 °C -12.3 °C 34462.7 hPa ENE 9 km/h 9 km/h 63 % 0 mm
12:30 -8.3 °C -12.2 °C 34462.7 hPa ENE 9.8 km/h 9.8 km/h 63 % 0 mm
12:35 -8.2 °C -12.2 °C 34462.7 hPa ENE 6 km/h 6 km/h 63 % 0 mm
12:40 -8.2 °C -12.3 °C 34462.7 hPa WNW 9 km/h 9 km/h 62 % 0 mm
12:45 -7.9 °C -12.1 °C 34462.7 hPa East 9 km/h 9 km/h 62 % 0 mm
12:50 -7.8 °C -12 °C 34462.7 hPa NE 5.1 km/h   61 % 0 mm
12:55 -7.7 °C -12 °C 34462.7 hPa ENE 9.8 km/h 9.8 km/h 61 % 0 mm
13:00 -7.9 °C -12.3 °C 34462.7 hPa NNE 9 km/h 9 km/h 60 % 0 mm
13:05 -7.9 °C -12.2 °C 34462.7 hPa ENE 9 km/h 9 km/h 61 % 0 mm
13:10 -8.1 °C -12.3 °C 34462.7 hPa SSW 17.9 km/h 17.9 km/h 61 % 0 mm
13:15 -8 °C -12.2 °C 34462.7 hPa SSW 8 km/h 8 km/h 61 % 0 mm
13:20 -8 °C -12.4 °C 34462.7 hPa SSW 6 km/h 6 km/h 60 % 0 mm
13:25 -8 °C -12.5 °C 34462.7 hPa WSW 15 km/h 15 km/h 59 % 0 mm
13:30 -8.1 °C -13.5 °C 34462.7 hPa WSW 9 km/h 9 km/h 53 % 0 mm
13:35 -8.1 °C -13.5 °C 34462.7 hPa WNW 7.6 km/h 7.6 km/h 53 % 0 mm
13:40 -8.2 °C -13.9 °C 34428.8 hPa WNW 15 km/h 15 km/h 51 % 0 mm
13:45 -8.2 °C -13.9 °C 34428.8 hPa WSW 9 km/h 9 km/h 51 % 0 mm
13:50 -8.1 °C -13.9 °C 34428.8 hPa West 4.2 km/h 4.2 km/h 50 % 0 mm
13:55 -8.1 °C -14.1 °C 34462.7 hPa SW 15 km/h 15 km/h 49 % 0 mm
14:00 -8 °C -14.3 °C 34462.7 hPa NNE 9 km/h 9 km/h 47 % 0 mm
14:05 -8 °C -14.3 °C 34462.7 hPa South 9 km/h 9 km/h 47 % 0 mm
14:10 -7.9 °C -14.5 °C 34462.7 hPa West 9 km/h 9 km/h 46 % 0 mm
14:15 -7.8 °C -14.6 °C 34462.7 hPa NNE 15 km/h 15 km/h 45 % 0 mm
14:20 -7.7 °C -14.4 °C 34462.7 hPa SSW 9 km/h 9 km/h 45 % 0 mm
14:25 -7.6 °C -14.3 °C 34462.7 hPa West 15 km/h 15 km/h 45 % 0 mm
14:30 -7.6 °C -14.5 °C 34462.7 hPa WSW 9.8 km/h 9.8 km/h 44 % 0 mm
14:35 -7.5 °C -14.6 °C 34462.7 hPa West 11.9 km/h 11.9 km/h 43 % 0 mm
14:40 -7.5 °C -14.4 °C 34462.7 hPa North 6.8 km/h 6.8 km/h 44 % 0 mm
14:45 -7.7 °C -14.8 °C 34462.7 hPa ESE 11.9 km/h 11.9 km/h 43 % 0 mm
14:50 -8.1 °C -14.1 °C 34462.7 hPa ESE 15 km/h 15 km/h 49 % 0 mm
14:55 -8.3 °C -13.8 °C 34462.7 hPa East 17.9 km/h 17.9 km/h 52 % 0 mm
15:00 -8.5 °C -13.7 °C 34462.7 hPa SE 15 km/h 15 km/h 54 % 0 mm
15:05 -8.3 °C -13.4 °C 34462.7 hPa East 16.6 km/h 16.6 km/h 55 % 0 mm
15:10 -8.5 °C -13.3 °C 34462.7 hPa NE 23.8 km/h 23.8 km/h 57 % 0 mm
15:15 -8.4 °C -13.2 °C 34462.7 hPa East 26.9 km/h 26.9 km/h 57 % 0 mm
15:20 -8.2 °C -13.2 °C 34462.7 hPa SSE 17.9 km/h 17.9 km/h 56 % 0 mm
15:25 -8.3 °C -13.2 °C 34428.8 hPa ESE 15 km/h 15 km/h 56 % 0 mm
15:30 -8.3 °C -13.2 °C 34428.8 hPa WSW 17.9 km/h 17.9 km/h 56 % 0 mm
15:35 -7.9 °C -12.9 °C 34428.8 hPa SSW 4.2 km/h   56 % 0 mm
15:40 -7.5 °C -12.9 °C 34395 hPa SW 20.9 km/h 20.9 km/h 53 % 0 mm
15:45 -6.9 °C -12.7 °C 34395 hPa WSW 11.9 km/h 11.9 km/h 51 % 0 mm
15:50 -7.4 °C -13.2 °C 34395 hPa WSW 20.9 km/h 20.9 km/h 51 % 0 mm
15:55 -7.6 °C -13.3 °C 34395 hPa WSW 23.8 km/h 23.8 km/h 51 % 0 mm
16:00 -7.3 °C -12.9 °C 34395 hPa WSW 17.9 km/h 17.9 km/h 52 % 0 mm
16:05 -7.3 °C -12.9 °C 34395 hPa WSW 26.9 km/h 26.9 km/h 52 % 0 mm
16:10 -7.4 °C -13.2 °C 34395 hPa SW 31.4 km/h 31.4 km/h 51 % 0 mm
16:15 -7.5 °C -13.2 °C 34395 hPa SSW 32.3 km/h 32.3 km/h 51 % 0 mm
16:20 -7.6 °C -13.3 °C 34395 hPa SW 20.9 km/h 20.9 km/h 51 % 0 mm
16:25 -7.4 °C -13.2 °C 34395 hPa WSW 28.2 km/h 28.2 km/h 51 % 0 mm
16:30 -7.4 °C -13.2 °C 34395 hPa South 20.9 km/h 20.9 km/h 51 % 0 mm
16:35 -7.2 °C -13.2 °C 34395 hPa WSW 17.9 km/h 17.9 km/h 50 % 0 mm
16:40 -7.4 °C -13.2 °C 34395 hPa SSW 23.8 km/h 23.8 km/h 51 % 0 mm
16:45 -7.4 °C -13.2 °C 34395 hPa SSW 20.9 km/h 20.9 km/h 51 % 0 mm
16:50 -7.6 °C -13.3 °C 34395 hPa WNW 23.8 km/h 23.8 km/h 51 % 0 mm
16:55 -7.6 °C -13.3 °C 34395 hPa SW 26.9 km/h 26.9 km/h 51 % 0 mm
17:00 -7.4 °C -13.2 °C 34395 hPa SSW 17.9 km/h 17.9 km/h 51 % 0 mm
17:05 -7.5 °C -13.4 °C 34395 hPa SW 20.9 km/h 20.9 km/h 50 % 0 mm
17:10 -7.7 °C -13.6 °C 34395 hPa SSW 23.8 km/h 23.8 km/h 50 % 0 mm
17:15 -7.6 °C -13.5 °C 34395 hPa SW 15 km/h 15 km/h 50 % 0 mm
17:20 -7.6 °C -13.4 °C 34395 hPa SW 15 km/h 15 km/h 50 % 0 mm
17:25 -7.6 °C -13.5 °C 34395 hPa SW 23.8 km/h 23.8 km/h 50 % 0 mm
17:30 -7.7 °C -13.6 °C 34395 hPa SW 20.9 km/h 20.9 km/h 50 % 0 mm
17:35 -7.7 °C -13.6 °C 34395 hPa SSW 17.9 km/h 17.9 km/h 50 % 0 mm
17:40 -7.8 °C -13.5 °C 34395 hPa South 15 km/h 15 km/h 51 % 0 mm
17:45 -7.6 °C -13.3 °C 34395 hPa WSW 38.1 km/h 38.1 km/h 51 % 0 mm
17:50 -7.8 °C -13.5 °C 34395 hPa SW 23.8 km/h 23.8 km/h 51 % 0 mm
18:00 -8 °C -13.7 °C 34395 hPa WSW 17.9 km/h 17.9 km/h 51 % 0 mm
18:05 -7.8 °C -13.6 °C 34395 hPa South 15 km/h 15 km/h 51 % 0 mm
18:10 -7.8 °C -13.5 °C 34395 hPa WSW 20.9 km/h 20.9 km/h 51 % 0 mm
18:15 -8.1 °C -13.8 °C 34395 hPa WNW 17.9 km/h 17.9 km/h 51 % 0 mm
18:20 -8.2 °C -13.9 °C 34428.8 hPa SW 23.8 km/h 23.8 km/h 51 % 0 mm
18:25 -8.3 °C -13.9 °C 34428.8 hPa SSW 15 km/h 15 km/h 51 % 0 mm
18:30 -8.4 °C -13.9 °C 34428.8 hPa SSW 17.9 km/h 17.9 km/h 52 % 0 mm
18:35 -8.5 °C -13.8 °C 34428.8 hPa WSW 15 km/h 15 km/h 53 % 0 mm
18:40 -8.3 °C -13.8 °C 34428.8 hPa WSW 11.9 km/h 11.9 km/h 52 % 0 mm
18:45 -8.4 °C -13.7 °C 34428.8 hPa SSW 17.9 km/h 17.9 km/h 53 % 0 mm
18:50 -8.5 °C -13.8 °C 34428.8 hPa SSW 25.9 km/h 25.9 km/h 53 % 0 mm
18:55 -8.8 °C -14.2 °C 34462.7 hPa SW 23.8 km/h 23.8 km/h 53 % 0 mm
19:00 -8.8 °C -14 °C 34462.7 hPa WSW 9.3 km/h 9.3 km/h 54 % 0 mm
19:05 -8.9 °C -14.1 °C 34462.7 hPa WSW 17.9 km/h 17.9 km/h 54 % 0 mm
19:10 -9.1 °C -14.3 °C 34462.7 hPa WSW 9 km/h   54 % 0 mm
19:15 -9.2 °C -14.2 °C 34462.7 hPa SW 14.5 km/h 14.5 km/h 55 % 0 mm
19:20 -9.4 °C -14.2 °C 34462.7 hPa SW 11.9 km/h 11.9 km/h 56 % 0 mm
19:25 -9.4 °C -14.3 °C 34462.7 hPa WSW 15 km/h 15 km/h 56 % 0 mm
19:30 -9.6 °C -14.4 °C 34462.7 hPa SW 15 km/h 15 km/h 56 % 0 mm
19:35 -9.6 °C -14.3 °C 34462.7 hPa SW 9 km/h 9.8 km/h 57 % 0 mm
19:40 -9.7 °C -14.4 °C 34462.7 hPa WSW 6.8 km/h 6.8 km/h 57 % 0 mm
19:45 -9.8 °C -14.3 °C 34462.7 hPa WSW 11.9 km/h 11.9 km/h 58 % 0 mm
19:55 -9.9 °C -14.4 °C 34462.7 hPa SSW 9 km/h 9 km/h 58 % 0 mm
20:00 -9.9 °C -14.4 °C 34462.7 hPa East 11.9 km/h 11.9 km/h 58 % 0 mm
20:05 -9.9 °C -14.4 °C 34462.7 hPa NE 6 km/h 6 km/h 58 % 0 mm
20:10 -10.4 °C -14.6 °C 34462.7 hPa NNE 9 km/h 9 km/h 60 % 0 mm
20:15 -10.5 °C -14.6 °C 34462.7 hPa NNE 8.5 km/h 8.5 km/h 61 % 0 mm
20:20 -10.6 °C -14.6 °C 34462.7 hPa East 9.3 km/h 9.3 km/h 61 % 0 mm
20:25 -10.7 °C -14.8 °C 34428.8 hPa East 6.8 km/h 6.8 km/h 61 % 0 mm
20:30 -10.8 °C -14.8 °C 34428.8 hPa ENE 6 km/h 6 km/h 61 % 0 mm
20:35 -10.8 °C -14.8 °C 34428.8 hPa NE 3.7 km/h   62 % 0 mm
20:40 -10.9 °C -14.8 °C 34462.7 hPa NE 5.1 km/h 5.1 km/h 62 % 0 mm
20:45 -10.9 °C -14.8 °C 34462.7 hPa ENE 6 km/h 6 km/h 62 % 0 mm
20:50 -10.9 °C -14.9 °C 34462.7 hPa ENE 9.3 km/h 9.3 km/h 62 % 0 mm
20:55 -11 °C -14.8 °C 34462.7 hPa ENE 6 km/h 6 km/h 63 % 0 mm
21:00 -11.1 °C -14.9 °C 34462.7 hPa NNE 3.1 km/h   63 % 0 mm
21:05 -11.1 °C -14.8 °C 34462.7 hPa Calm     64 % 0 mm
21:10 -11.2 °C -14.9 °C 34462.7 hPa Calm     64 % 0 mm
21:15 -11.3 °C -14.9 °C 34462.7 hPa WNW 3.1 km/h   64 % 0 mm
21:20 -11.3 °C -14.9 °C 34462.7 hPa Calm     65 % 0 mm
21:25 -11.3 °C -14.9 °C 34462.7 hPa ENE 6 km/h 6 km/h 65 % 0 mm
21:35 -11.4 °C -14.8 °C 34462.7 hPa NE 6 km/h 6 km/h 66 % 0 mm
21:40 -11.5 °C -15.1 °C 34462.7 hPa WSW 6 km/h 6 km/h 65 % 0 mm
21:45 -11.6 °C -15.1 °C 34462.7 hPa Calm     65 % 0 mm
21:50 -11.6 °C -15 °C 34462.7 hPa ENE 6 km/h 6 km/h 66 % 0 mm
22:00 -11.7 °C -14.9 °C 34462.7 hPa NE 3.1 km/h   67 % 0 mm
22:05 -11.7 °C -14.8 °C 34462.7 hPa ENE 3.7 km/h 3.7 km/h 68 % 0 mm
22:10 -11.7 °C -14.9 °C 34462.7 hPa Calm     68 % 0 mm
22:15 -11.7 °C -14.9 °C 34462.7 hPa Calm     68 % 0 mm
22:16 -11.7 °C -14.9 °C 34462.7 hPa Calm     68 % 0 mm
22:21 -11.7 °C -14.8 °C 34462.7 hPa Calm     69 % 0 mm
22:26 -11.7 °C -14.8 °C 34462.7 hPa Calm     69 % 0 mm
22:31 -11.7 °C -14.9 °C 34462.7 hPa SW 3.1 km/h 3.1 km/h 68 % 0 mm
22:36 -11.7 °C -14.8 °C 34496.6 hPa WNW 3.1 km/h 3.1 km/h 68 % 0 mm
22:41 -11.6 °C -14.8 °C 34496.6 hPa Calm     68 % 0 mm
22:46 -11.6 °C -14.7 °C 34496.6 hPa Calm     69 % 0 mm
22:51 -11.6 °C -14.7 °C 34496.6 hPa Calm     69 % 0 mm
22:56 -11.7 °C -14.8 °C 34496.6 hPa SW 6.3 km/h 6.3 km/h 68 % 0 mm
23:01 -11.7 °C -14.8 °C 34496.6 hPa WSW 6 km/h 6 km/h 68 % 0 mm
23:06 -11.7 °C -14.7 °C 34462.7 hPa WSW 6 km/h 6 km/h 69 % 0 mm
23:11 -11.7 °C -14.7 °C 34462.7 hPa SW 6 km/h 6 km/h 69 % 0 mm
23:16 -11.7 °C -14.8 °C 34462.7 hPa SW 6 km/h 6 km/h 69 % 0 mm
23:21 -11.8 °C -14.7 °C 34462.7 hPa SW 3.7 km/h   70 % 0 mm
23:26 -11.8 °C -14.6 °C 34462.7 hPa Calm     71 % 0 mm
23:31 -11.8 °C -14.6 °C 34462.7 hPa Calm     71 % 0 mm
23:36 -11.8 °C -14.7 °C 34496.6 hPa SW 3.1 km/h 3.1 km/h 70 % 0 mm
23:41 -11.8 °C -14.6 °C 34496.6 hPa WSW 3.1 km/h   71 % 0 mm
23:46 -11.8 °C -14.7 °C 34496.6 hPa SW 3.1 km/h 3.1 km/h 70 % 0 mm
23:51 -11.8 °C -14.7 °C 34496.6 hPa WSW 6 km/h 6 km/h 70 % 0 mm
23:56 -11.8 °C -14.7 °C 34496.6 hPa WSW 6 km/h 6 km/h 70 % 0 mm
Meteo Sesrovires
Elogis d' Weather Underground - 3.5 mb

Guio original per  Jim McMurry - jmcmurry@mwt.net Adaptat per a la plantilla per  Wim van der Kuil - Leuven-Template.eu

Trobareu la nostra informacio del temps tambe a:

Weather Underground

AWEKAS